Time;durP1;ratioP1;P1;durP2;ratioP2;P2;SDS_P1;SDS_P2;PMS_P1;PMS_P2;Temp;Humidity;BMP_temperature;BMP_pressure;BME280_temperature;BME280_humidity;BME280_pressure;Samples;Min_cycle;Max_cycle;Signal;HPM_P1;HPM_P2
2024/01/25 06:12:59;;;;;;;;;;;;;;;11.79;78.81;98367.63;4244164;27;10261;-65
2024/01/25 06:15:03;;;;;;;;;;;;;;;12.09;78.39;98364.38;4246964;27;5674;-65
2024/01/25 06:17:06;;;;;;;;;;;;;;;12.32;77.78;98363.72;4248329;27;5638;-65
2024/01/25 06:19:09;;;;;;;;;;;;;;;12.48;77.13;98369.88;4248633;27;5660;-65
2024/01/25 06:21:13;;;;;;;;;;;;;;;12.65;76.76;98362.72;4248318;27;5630;-66
2024/01/25 06:23:16;;;;;;;;;;;;;;;12.78;76.56;98364.84;4248376;27;5666;-66
2024/01/25 06:25:18;;;;;;;;;;;;;;;12.89;76.24;98361.00;4248467;27;5658;-63
2024/01/25 06:27:21;;;;;;;;;;;;;;;12.96;75.71;98372.63;4246959;27;5729;-64
2024/01/25 06:29:25;;;;;;;;;;;;;;;13.03;75.53;98373.59;4242584;27;5666;-64
2024/01/25 06:31:28;;;;;;;;;;;;;;;13.09;75.27;98371.06;4244004;27;6290;-67
2024/01/25 06:33:31;;;;;;;;;;;;;;;13.15;75.30;98377.53;4247982;27;5738;-70
2024/01/25 06:35:34;;;;;;;;;;;;;;;13.20;75.12;98369.91;4246784;27;5705;-72
2024/01/25 06:37:38;;;;;;;;;;;;;;;13.24;74.80;98387.16;4235972;27;5675;-68
2024/01/25 06:39:40;;;;;;;;;;;;;;;13.27;74.79;98389.50;4235689;27;5652;-68
2024/01/25 06:41:43;;;;;;;;;;;;;;;13.30;74.61;98378.50;4247036;27;5670;-69
2024/01/25 06:43:47;;;;;;;;;;;;;;;13.32;74.44;98378.34;4249984;27;7035;-73
2024/01/25 06:45:52;;;;;;;;;;;;;;;13.33;74.18;98380.81;4253115;27;5628;-72
2024/01/25 06:47:55;;;;;;;;;;;;;;;13.35;74.04;98384.13;4248320;27;5661;-67
2024/01/25 06:49:58;;;;;;;;;;;;;;;13.37;73.90;98386.63;4243632;27;5644;-70
2024/01/25 06:52:01;;;;;;;;;;;;;;;13.38;73.85;98382.97;4242475;27;5671;-69
2024/01/25 06:54:04;;;;;;;;;;;;;;;13.39;73.73;98380.16;4236456;27;6354;-72
2024/01/25 06:56:07;;;;;;;;;;;;;;;13.42;73.46;98380.78;4246817;27;5633;-68
2024/01/25 06:58:09;;;;;;;;;;;;;;;13.44;73.64;98384.09;4254485;27;5637;-68
2024/01/25 07:00:15;;;;;;;;;;;;;;;13.43;73.40;98377.97;4251746;27;5713;-64
2024/01/25 07:02:20;;;;;;;;;;;;;;;13.45;73.27;98372.47;4247340;27;6417;-71
2024/01/25 07:04:23;;;;;;;;;;;;;;;13.46;72.86;98374.94;4249726;27;5650;-68
2024/01/25 07:06:26;;;;;;;;;;;;;;;13.48;72.77;98377.44;4247529;27;5657;-71
2024/01/25 07:08:29;;;;;;;;;;;;;;;13.47;72.80;98375.78;4248271;27;6338;-72
2024/01/25 07:10:33;;;;;;;;;;;;;;;13.49;72.92;98376.47;4248080;27;5674;-69
2024/01/25 07:12:36;;;;;;;;;;;;;;;13.49;72.53;98373.81;4243935;27;5797;-70
2024/01/25 07:14:39;;;;;;;;;;;;;;;13.49;72.61;98374.63;4236633;28;5721;-70
2024/01/25 07:16:42;;;;;;;;;;;;;;;13.49;72.33;98379.94;4236786;28;5661;-73
2024/01/25 07:18:45;;;;;;;;;;;;;;;13.50;72.35;98383.44;4236596;28;5834;-72
2024/01/25 07:20:48;;;;;;;;;;;;;;;13.51;72.02;98382.41;4237007;28;5654;-67
2024/01/25 07:22:52;;;;;;;;;;;;;;;13.51;72.15;98387.72;4236376;28;5708;-71
2024/01/25 07:24:55;;;;;;;;;;;;;;;13.51;71.70;98387.72;4236601;28;5741;-69
2024/01/25 07:26:58;;;;;;;;;;;;;;;13.52;71.74;98390.22;4236558;28;5658;-71
2024/01/25 07:29:00;;;;;;;;;;;;;;;13.50;71.78;98381.59;4236718;28;5658;-66
2024/01/25 07:31:03;;;;;;;;;;;;;;;13.52;71.88;98376.09;4236350;28;5842;-68
2024/01/25 07:33:06;;;;;;;;;;;;;;;13.52;71.46;98381.41;4236201;28;5646;-67
2024/01/25 07:35:11;;;;;;;;;;;;;;;13.52;71.60;98386.72;4236501;28;6444;-65
2024/01/25 07:37:15;;;;;;;;;;;;;;;13.52;71.57;98379.59;4236402;28;5880;-65
2024/01/25 07:39:18;;;;;;;;;;;;;;;13.54;71.53;98382.06;4236439;28;5654;-67
2024/01/25 07:41:22;;;;;;;;;;;;;;;13.54;71.26;98371.44;4236202;28;5665;-71
2024/01/25 07:43:25;;;;;;;;;;;;;;;13.55;71.19;98365.94;4236167;28;5650;-70
2024/01/25 07:45:28;;;;;;;;;;;;;;;13.57;71.16;98368.44;4236038;28;5666;-66
2024/01/25 07:47:31;;;;;;;;;;;;;;;13.56;71.03;98359.63;4236272;28;5718;-71
2024/01/25 07:49:34;;;;;;;;;;;;;;;13.58;71.11;98372.75;4236490;28;5669;-71
2024/01/25 07:51:39;;;;;;;;;;;;;;;13.59;70.89;98377.03;4236250;28;5658;-68
2024/01/25 07:53:43;;;;;;;;;;;;;;;13.59;70.91;98374.38;4235977;28;6339;-66
2024/01/25 07:55:46;;;;;;;;;;;;;;;13.60;70.81;98365.44;4235605;27;5685;-73
2024/01/25 07:57:48;;;;;;;;;;;;;;;13.60;70.75;98365.44;4236120;28;5665;-71
2024/01/25 07:59:51;;;;;;;;;;;;;;;13.59;70.71;98361.97;4236125;28;5741;-72
2024/01/25 08:01:54;;;;;;;;;;;;;;;13.59;70.35;98363.75;4235782;28;5848;-66
2024/01/25 08:03:58;;;;;;;;;;;;;;;13.57;70.21;98371.09;4235908;27;5662;-67
2024/01/25 08:06:02;;;;;;;;;;;;;;;13.55;70.21;98365.13;4235831;28;5638;-65
2024/01/25 08:08:07;;;;;;;;;;;;;;;13.50;70.47;98359.50;4235972;28;5650;-65
2024/01/25 08:10:11;;;;;;;;;;;;;;;13.51;70.40;98369.97;4235639;28;5750;-66
2024/01/25 08:12:14;;;;;;;;;;;;;;;13.52;70.11;98368.13;4235492;28;6330;-66
2024/01/25 08:14:16;;;;;;;;;;;;;;;13.51;70.12;98363.81;4235708;28;5639;-66
2024/01/25 08:16:20;;;;;;;;;;;;;;;13.51;70.06;98366.47;4235701;28;5812;-65
2024/01/25 08:18:24;;;;;;;;;;;;;;;13.51;69.94;98369.13;4235578;27;5658;-64
2024/01/25 08:20:29;;;;;;;;;;;;;;;13.51;70.04;98369.97;4235781;28;7025;-64
2024/01/25 08:22:31;;;;;;;;;;;;;;;13.52;70.07;98368.13;4235671;28;5657;-66
2024/01/25 08:24:36;;;;;;;;;;;;;;;13.52;70.13;98370.78;4234809;28;5638;-64
2024/01/25 08:26:39;;;;;;;;;;;;;;;13.51;69.87;98369.13;4235466;28;5645;-65
2024/01/25 08:28:44;;;;;;;;;;;;;;;13.52;69.80;98370.78;4235672;28;5649;-65
2024/01/25 08:30:47;;;;;;;;;;;;;;;13.53;69.69;98375.09;4235356;28;5658;-66
2024/01/25 08:32:51;;;;;;;;;;;;;;;13.54;69.83;98366.94;4235331;27;5753;-65
2024/01/25 08:34:54;;;;;;;;;;;;;;;13.54;69.88;98363.47;4235456;28;5729;-66
2024/01/25 08:36:59;;;;;;;;;;;;;;;13.56;69.73;98364.94;4235372;28;6375;-65
2024/01/25 08:39:03;;;;;;;;;;;;;;;13.59;69.65;98358.44;4235550;27;6324;-65
2024/01/25 08:41:08;;;;;;;;;;;;;;;13.60;69.63;98355.66;4235148;28;5833;-65
2024/01/25 08:43:12;;;;;;;;;;;;;;;13.63;69.83;98349.97;4235322;28;6554;-66
2024/01/25 08:45:16;;;;;;;;;;;;;;;13.65;69.70;98352.44;4235149;28;5940;-64
2024/01/25 08:47:19;;;;;;;;;;;;;;;13.67;69.41;98348.59;4234937;28;5658;-64
2024/01/25 08:49:21;;;;;;;;;;;;;;;13.69;69.44;98338.63;4235159;27;5775;-64
2024/01/25 08:51:24;;;;;;;;;;;;;;;13.71;69.49;98340.31;4235202;28;6365;-64
2024/01/25 08:53:28;;;;;;;;;;;;;;;13.72;69.62;98340.13;4235147;28;5747;-64
2024/01/25 08:55:31;;;;;;;;;;;;;;;13.74;69.55;98334.63;4235109;28;5650;-65
2024/01/25 08:57:35;;;;;;;;;;;;;;;13.76;69.45;98329.97;4234944;28;5793;-64
2024/01/25 08:59:39;;;;;;;;;;;;;;;13.78;69.37;98335.94;4235215;28;6356;-65
2024/01/25 09:01:42;;;;;;;;;;;;;;;13.81;69.32;98338.22;4234841;28;5635;-65
2024/01/25 09:03:44;;;;;;;;;;;;;;;13.80;69.15;98328.59;4234765;28;5769;-64
2024/01/25 09:05:47;;;;;;;;;;;;;;;13.80;69.22;98325.94;4234564;28;5662;-64
2024/01/25 09:07:51;;;;;;;;;;;;;;;13.80;69.18;98332.09;4234855;28;5649;-65
2024/01/25 09:09:55;;;;;;;;;;;;;;;13.79;69.13;98330.44;4234989;28;5650;-64
2024/01/25 09:11:58;;;;;;;;;;;;;;;13.80;69.24;98340.06;4234362;28;5665;-64
2024/01/25 09:14:02;;;;;;;;;;;;;;;13.79;68.84;98343.72;4234545;28;5805;-64
2024/01/25 09:16:06;;;;;;;;;;;;;;;13.80;68.71;98349.88;4233307;28;5929;-64
2024/01/25 09:18:10;;;;;;;;;;;;;;;13.78;68.68;98351.88;4234519;28;5724;-64
2024/01/25 09:20:14;;;;;;;;;;;;;;;13.77;68.77;98348.38;4234829;28;5736;-64
2024/01/25 09:22:17;;;;;;;;;;;;;;;13.79;68.75;98349.03;4234756;28;5654;-64
2024/01/25 09:24:20;;;;;;;;;;;;;;;13.77;68.54;98340.41;4234470;28;6296;-64
2024/01/25 09:26:23;;;;;;;;;;;;;;;13.77;68.65;98350.22;4234681;28;5646;-64
2024/01/25 09:28:26;;;;;;;;;;;;;;;13.75;68.41;98345.09;4234691;28;5670;-64
2024/01/25 09:30:31;;;;;;;;;;;;;;;13.75;68.33;98342.44;4234603;28;5729;-64
2024/01/25 09:32:34;;;;;;;;;;;;;;;13.72;68.50;98336.66;4233948;28;5778;-64
2024/01/25 09:34:38;;;;;;;;;;;;;;;13.73;68.35;98338.31;4234605;28;6474;-64
2024/01/25 09:36:43;;;;;;;;;;;;;;;13.72;68.42;98340.13;4234360;28;6603;-65
2024/01/25 09:38:46;;;;;;;;;;;;;;;13.73;68.27;98335.63;4234586;28;5936;-65
2024/01/25 09:40:51;;;;;;;;;;;;;;;13.73;68.29;98327.66;4234384;28;5657;-65
2024/01/25 09:42:55;;;;;;;;;;;;;;;13.75;68.29;98329.13;4234433;28;6365;-65
2024/01/25 09:44:59;;;;;;;;;;;;;;;13.76;68.29;98336.09;4234242;28;5661;-65
2024/01/25 09:47:07;;;;;;;;;;;;;;;13.78;68.23;98331.44;4234452;28;5642;-64
2024/01/25 09:49:10;;;;;;;;;;;;;;;13.79;68.18;98337.56;4234080;28;5647;-65
2024/01/25 09:51:13;;;;;;;;;;;;;;;13.80;68.28;98337.41;4234306;28;5670;-65
2024/01/25 09:53:21;;;;;;;;;;;;;;;13.82;68.12;98334.59;4234448;28;5713;-64
2024/01/25 09:55:26;;;;;;;;;;;;;;;13.83;67.99;98337.06;4234498;28;6335;-64
2024/01/25 09:57:32;;;;;;;;;;;;;;;13.85;67.98;98335.06;4233641;28;5638;-65
2024/01/25 09:59:34;;;;;;;;;;;;;;;13.89;68.12;98331.03;4234378;28;5857;-65
2024/01/25 10:01:37;;;;;;;;;;;;;;;13.89;68.03;98317.75;4234117;28;5650;-65
2024/01/25 10:03:43;;;;;;;;;;;;;;;13.93;68.06;98327.03;4234067;28;5634;-65
2024/01/25 10:05:47;;;;;;;;;;;;;;;13.94;68.12;98323.38;4234305;28;5825;-65
2024/01/25 10:07:50;;;;;;;;;;;;;;;13.95;67.97;98324.19;4234143;28;5645;-65
2024/01/25 10:09:52;;;;;;;;;;;;;;;13.96;68.03;98323.19;4234412;28;5678;-65
2024/01/25 10:11:56;;;;;;;;;;;;;;;13.98;68.06;98326.50;4233937;28;5886;-65
2024/01/25 10:14:19;;;;;;;;;;;;;;;14.01;67.99;98315.50;4234289;28;5649;-65
2024/01/25 10:16:22;;;;;;;;;;;;;;;14.01;67.88;98320.81;4234092;28;5642;-65
2024/01/25 10:18:26;;;;;;;;;;;;;;;14.01;67.85;98315.50;4234058;28;5918;-64
2024/01/25 10:20:35;;;;;;;;;;;;;;;14.05;67.91;98319.47;4234003;28;5092;-64
2024/01/25 10:22:39;;;;;;;;;;;;;;;14.07;67.64;98313.97;4234340;28;6376;-64
2024/01/25 10:24:43;;;;;;;;;;;;;;;14.08;67.69;98321.75;4234158;28;5967;-65
2024/01/25 10:26:50;;;;;;;;;;;;;;;14.08;67.62;98320.94;4234145;27;5658;-64
2024/01/25 10:28:54;;;;;;;;;;;;;;;14.09;67.51;98311.97;4234088;28;5685;-64
2024/01/25 10:31:06;;;;;;;;;;;;;;;14.08;67.64;98304.97;4233919;28;5646;-65
2024/01/25 10:33:11;;;;;;;;;;;;;;;14.10;67.43;98316.25;4233752;28;5686;-65
2024/01/25 10:35:15;;;;;;;;;;;;;;;14.10;67.66;98309.13;4234134;27;5678;-65
2024/01/25 10:37:28;;;;;;;;;;;;;;;14.12;67.71;98290.31;4234068;28;5635;-65
2024/01/25 10:39:32;;;;;;;;;;;;;;;14.14;67.44;98298.94;4234138;28;5629;-65
2024/01/25 10:41:36;;;;;;;;;;;;;;;14.15;67.36;98300.59;4234176;28;5658;-64
2024/01/25 10:43:39;;;;;;;;;;;;;;;14.16;67.46;98291.63;4234071;28;5637;-65
2024/01/25 10:45:42;;;;;;;;;;;;;;;14.16;67.26;98302.28;4233866;28;5654;-65
2024/01/25 10:47:49;;;;;;;;;;;;;;;14.15;67.58;98290.78;4234185;28;5977;-65
2024/01/25 10:49:53;;;;;;;;;;;;;;;14.17;67.32;98293.28;4236988;28;7138;-65
2024/01/25 10:51:56;;;;;;;;;;;;;;;14.18;67.31;98294.94;4236830;27;5716;-65
2024/01/25 10:54:02;;;;;;;;;;;;;;;14.19;67.43;98292.09;4237008;28;5646;-65
2024/01/25 10:56:07;;;;;;;;;;;;;;;14.20;67.36;98283.09;4237022;28;5642;-65
2024/01/25 10:58:10;;;;;;;;;;;;;;;14.23;67.22;98281.91;4236914;27;5658;-65
2024/01/25 11:00:15;;;;;;;;;;;;;;;14.25;67.24;98279.88;4236942;28;5662;-65
2024/01/25 11:02:19;;;;;;;;;;;;;;;14.26;67.10;98270.91;4236995;28;5080;-64
2024/01/25 11:04:24;;;;;;;;;;;;;;;14.28;67.08;98271.56;4236657;28;7660;-65
2024/01/25 11:06:29;;;;;;;;;;;;;;;14.28;66.92;98260.94;4237007;28;5809;-65
2024/01/25 11:08:37;;;;;;;;;;;;;;;14.28;67.08;98258.28;4237028;28;5661;-65
2024/01/25 11:10:42;;;;;;;;;;;;;;;14.25;66.92;98248.78;4236986;28;5752;-65
2024/01/25 11:12:50;;;;;;;;;;;;;;;14.26;66.98;98246.97;4236490;28;6441;-65
2024/01/25 11:14:56;;;;;;;;;;;;;;;14.26;67.08;98247.78;4236981;28;5666;-64
2024/01/25 11:16:59;;;;;;;;;;;;;;;14.25;66.85;98242.66;4236804;28;6658;-65
2024/01/25 11:19:05;;;;;;;;;;;;;;;14.25;66.87;98245.31;4236521;28;5766;-64
2024/01/25 11:21:09;;;;;;;;;;;;;;;14.24;66.56;98243.66;4236731;28;5757;-64
2024/01/25 11:23:16;;;;;;;;;;;;;;;14.23;66.60;98244.66;4236675;28;5638;-64
2024/01/25 11:25:20;;;;;;;;;;;;;;;14.23;66.75;98245.50;4236569;27;5634;-65
2024/01/25 11:27:25;;;;;;;;;;;;;;;14.25;66.77;98245.31;4236543;28;5646;-65
2024/01/25 11:29:28;;;;;;;;;;;;;;;14.28;66.66;98239.66;4236535;28;5794;-65
2024/01/25 11:31:31;;;;;;;;;;;;;;;14.28;66.65;98237.81;4236175;28;5798;-65
2024/01/25 11:33:35;;;;;;;;;;;;;;;14.31;66.54;98236.63;4236246;28;5678;-65
2024/01/25 11:35:38;;;;;;;;;;;;;;;14.33;66.50;98239.09;4236578;28;5693;-64
2024/01/25 11:37:41;;;;;;;;;;;;;;;14.32;66.39;98230.28;4236339;28;5721;-65
2024/01/25 11:39:44;;;;;;;;;;;;;;;14.33;66.33;98229.28;4236380;28;5670;-64
2024/01/25 11:41:48;;;;;;;;;;;;;;;14.33;66.55;98233.78;4236262;28;5638;-64
2024/01/25 11:43:53;;;;;;;;;;;;;;;14.31;66.25;98236.63;4236269;28;5763;-66
2024/01/25 11:45:55;;;;;;;;;;;;;;;14.29;66.21;98235.97;4236313;28;7197;-65
2024/01/25 11:47:59;;;;;;;;;;;;;;;14.28;66.27;98226.34;4236103;28;5673;-65
2024/01/25 11:50:01;;;;;;;;;;;;;;;14.27;66.39;98225.53;4236209;28;5642;-65
2024/01/25 11:52:04;;;;;;;;;;;;;;;14.28;66.37;98221.03;4236253;28;6323;-65
2024/01/25 11:54:07;;;;;;;;;;;;;;;14.26;65.95;98215.03;4236045;28;5808;-64
2024/01/25 11:56:13;;;;;;;;;;;;;;;14.25;66.02;98221.38;4236091;28;5670;-64
2024/01/25 11:58:16;;;;;;;;;;;;;;;14.24;66.14;98209.09;4236217;28;5658;-65
2024/01/25 12:00:23;;;;;;;;;;;;;;;14.25;66.32;98208.06;4235984;28;5705;-65
2024/01/25 12:02:26;;;;;;;;;;;;;;;14.26;66.26;98201.75;4235999;28;5720;-64
2024/01/25 12:04:29;;;;;;;;;;;;;;;14.27;66.34;98204.25;4235361;28;5755;-64
2024/01/25 12:06:35;;;;;;;;;;;;;;;14.27;65.99;98209.56;4236086;28;5813;-64
2024/01/25 12:08:39;;;;;;;;;;;;;;;14.30;66.08;98202.22;4235810;28;5724;-65
2024/01/25 12:10:42;;;;;;;;;;;;;;;14.31;66.10;98199.38;4235794;28;5900;-65
2024/01/25 12:12:44;;;;;;;;;;;;;;;14.31;66.15;98196.72;4235474;28;6525;-65
2024/01/25 12:14:47;;;;;;;;;;;;;;;14.34;65.85;98196.34;4235636;28;5684;-65
2024/01/25 12:16:51;;;;;;;;;;;;;;;14.33;65.86;98189.38;4235777;28;5646;-65
2024/01/25 12:18:55;;;;;;;;;;;;;;;14.35;65.90;98189.19;4234914;27;5634;-64
2024/01/25 12:20:59;;;;;;;;;;;;;;;14.35;65.95;98186.53;4235743;28;5690;-65
2024/01/25 12:23:03;;;;;;;;;;;;;;;14.35;65.93;98179.38;4235670;28;5674;-65
2024/01/25 12:25:08;;;;;;;;;;;;;;;14.37;65.98;98173.88;4235680;28;5642;-65
2024/01/25 12:27:11;;;;;;;;;;;;;;;14.37;65.85;98180.00;4235888;28;5637;-65
2024/01/25 12:29:14;;;;;;;;;;;;;;;14.39;65.89;98172.69;4235594;28;5662;-64
2024/01/25 12:31:17;;;;;;;;;;;;;;;14.38;66.04;98168.34;4235530;28;5670;-64
2024/01/25 12:33:22;;;;;;;;;;;;;;;14.38;66.01;98163.03;4235408;28;5658;-65
2024/01/25 12:35:29;;;;;;;;;;;;;;;14.39;65.86;98174.53;4235734;27;5366;-65
2024/01/25 12:37:32;;;;;;;;;;;;;;;14.40;65.92;98165.53;4235235;28;8432;-65
2024/01/25 12:39:34;;;;;;;;;;;;;;;14.41;65.85;98165.34;4235511;28;5650;-65
2024/01/25 12:41:37;;;;;;;;;;;;;;;14.43;65.82;98166.00;4235202;28;5661;-65
2024/01/25 12:43:41;;;;;;;;;;;;;;;14.44;65.79;98159.69;4235370;28;5642;-65
2024/01/25 12:45:46;;;;;;;;;;;;;;;14.45;65.81;98161.34;4235265;28;5861;-64
2024/01/25 12:47:49;;;;;;;;;;;;;;;14.44;65.73;98159.69;4234989;28;5634;-64
2024/01/25 12:49:54;;;;;;;;;;;;;;;14.44;65.64;98157.03;4235427;28;5646;-65
2024/01/25 12:51:57;;;;;;;;;;;;;;;14.43;65.50;98149.19;4235299;28;5650;-65
2024/01/25 12:54:00;;;;;;;;;;;;;;;14.44;65.64;98146.38;4235222;28;5701;-65
2024/01/25 12:56:05;;;;;;;;;;;;;;;14.45;65.53;98142.72;4235155;28;6351;-65
2024/01/25 12:58:08;;;;;;;;;;;;;;;14.46;65.50;98139.03;4235003;28;6336;-65
2024/01/25 13:00:12;;;;;;;;;;;;;;;14.45;65.45;98140.03;4235230;28;5728;-64
2024/01/25 13:02:16;;;;;;;;;;;;;;;14.46;65.37;98138.22;4234886;28;5850;-64
2024/01/25 13:04:20;;;;;;;;;;;;;;;14.47;65.33;98134.53;4234886;28;5646;-65
2024/01/25 13:06:25;;;;;;;;;;;;;;;14.47;65.40;98124.72;4234936;28;5643;-65
2024/01/25 13:08:28;;;;;;;;;;;;;;;14.47;65.30;98122.06;4235158;27;5658;-65
2024/01/25 13:10:31;;;;;;;;;;;;;;;14.48;65.19;98128.19;4234359;28;5646;-65
2024/01/25 13:12:33;;;;;;;;;;;;;;;14.48;65.17;98131.69;4234741;28;5638;-65
2024/01/25 13:14:36;;;;;;;;;;;;;;;14.46;65.21;98123.06;4234754;28;5857;-66
2024/01/25 13:16:39;;;;;;;;;;;;;;;14.47;65.20;98124.72;4234642;28;5796;-65
2024/01/25 13:18:42;;;;;;;;;;;;;;;14.47;65.20;98118.56;4234752;28;5845;-65
2024/01/25 13:20:46;;;;;;;;;;;;;;;14.46;65.24;98120.41;4234995;28;5666;-64
2024/01/25 13:22:49;;;;;;;;;;;;;;;14.46;65.25;98117.75;4234828;27;5661;-65
2024/01/25 13:24:52;;;;;;;;;;;;;;;14.46;65.01;98120.41;4234626;28;5660;-65
2024/01/25 13:26:56;;;;;;;;;;;;;;;14.48;65.14;98125.53;4234828;27;5737;-65
2024/01/25 13:28:58;;;;;;;;;;;;;;;14.48;64.99;98120.22;4217793;28;5679;-64
2024/01/25 13:31:02;;;;;;;;;;;;;;;14.49;64.99;98119.22;4234692;28;5662;-64
2024/01/25 13:33:05;;;;;;;;;;;;;;;14.48;65.04;98123.69;4234324;28;5646;-65
2024/01/25 13:35:09;;;;;;;;;;;;;;;14.51;65.00;98117.22;4233303;28;5597;-65
2024/01/25 13:37:12;;;;;;;;;;;;;;;14.53;65.02;98116.00;4234573;28;5693;-66
2024/01/25 13:39:16;;;;;;;;;;;;;;;14.54;65.00;98109.66;4234667;28;5736;-64
2024/01/25 13:41:19;;;;;;;;;;;;;;;14.56;64.84;98102.31;4234500;28;5658;-65
2024/01/25 13:43:22;;;;;;;;;;;;;;;14.59;64.91;98105.63;4234794;28;5642;-65
2024/01/25 13:45:25;;;;;;;;;;;;;;;14.57;64.98;98101.31;4234698;28;5101;-64
2024/01/25 13:47:29;;;;;;;;;;;;;;;14.59;64.97;98105.63;4234584;28;5658;-64
2024/01/25 13:49:32;;;;;;;;;;;;;;;14.58;64.93;98112.78;4234139;28;5804;-65
2024/01/25 13:51:35;;;;;;;;;;;;;;;14.57;64.83;98103.16;4234530;28;5659;-65
2024/01/25 13:53:38;;;;;;;;;;;;;;;14.59;64.95;98101.13;4234638;28;5732;-65
2024/01/25 13:55:43;;;;;;;;;;;;;;;14.60;64.87;98101.94;4234319;28;5788;-65
2024/01/25 13:57:46;;;;;;;;;;;;;;;14.60;64.67;98107.25;4234337;28;5673;-65
2024/01/25 13:59:48;;;;;;;;;;;;;;;14.58;64.72;98115.44;4234504;28;5639;-65
2024/01/25 14:01:51;;;;;;;;;;;;;;;14.58;64.60;98104.78;4234085;28;5770;-65
2024/01/25 14:03:53;;;;;;;;;;;;;;;14.60;64.76;98102.75;4234060;28;6476;-65
2024/01/25 14:05:57;;;;;;;;;;;;;;;14.60;64.67;98097.44;4234216;28;5634;-66
2024/01/25 14:08:00;;;;;;;;;;;;;;;14.63;64.55;98091.75;4234416;28;5705;-65
2024/01/25 14:10:04;;;;;;;;;;;;;;;14.65;64.53;98091.56;4234174;28;5666;-65
2024/01/25 14:12:09;;;;;;;;;;;;;;;14.64;64.41;98088.09;4234092;28;5644;-65
2024/01/25 14:14:13;;;;;;;;;;;;;;;14.66;64.41;98086.06;4234515;28;5653;-65
2024/01/25 14:16:17;;;;;;;;;;;;;;;14.67;64.48;98089.53;4234027;28;5646;-65
2024/01/25 14:18:21;;;;;;;;;;;;;;;14.67;64.26;98081.56;4234100;28;5733;-65
2024/01/25 14:20:26;;;;;;;;;;;;;;;14.68;64.41;98075.22;4234112;28;5658;-65
2024/01/25 14:22:30;;;;;;;;;;;;;;;14.69;64.38;98079.53;4234337;28;5754;-65
2024/01/25 14:24:38;;;;;;;;;;;;;;;14.69;64.41;98074.22;4237766;28;5096;-66
2024/01/25 14:26:41;;;;;;;;;;;;;;;14.70;64.26;98070.53;4237568;28;5646;-65
2024/01/25 14:28:46;;;;;;;;;;;;;;;14.71;64.22;98072.19;4237382;27;5720;-65
2024/01/25 14:30:50;;;;;;;;;;;;;;;14.73;64.18;98076.31;4237225;28;6339;-65
2024/01/25 14:32:53;;;;;;;;;;;;;;;14.75;64.20;98068.16;4237186;28;5772;-65
2024/01/25 14:34:57;;;;;;;;;;;;;;;14.76;64.16;98069.78;4237613;28;5646;-65
2024/01/25 14:37:00;;;;;;;;;;;;;;;14.76;64.17;98070.63;4237293;28;5646;-64
2024/01/25 14:39:04;;;;;;;;;;;;;;;14.78;64.11;98079.22;4237642;27;5646;-65
2024/01/25 14:41:09;;;;;;;;;;;;;;;14.77;63.99;98076.75;4237561;28;5743;-64
2024/01/25 14:43:13;;;;;;;;;;;;;;;14.79;63.84;98072.06;4237363;28;5721;-65
2024/01/25 14:45:18;;;;;;;;;;;;;;;14.78;63.97;98073.09;4237310;28;5757;-65
2024/01/25 14:47:22;;;;;;;;;;;;;;;14.79;64.02;98072.91;4237045;27;5737;-65
2024/01/25 14:49:25;;;;;;;;;;;;;;;14.79;63.93;98069.41;4236947;27;5642;-65
2024/01/25 14:51:28;;;;;;;;;;;;;;;14.79;63.97;98067.56;4237445;28;5646;-64
2024/01/25 14:53:30;;;;;;;;;;;;;;;14.80;64.00;98060.41;4237076;28;5666;-65
2024/01/25 14:55:33;;;;;;;;;;;;;;;14.79;63.95;98059.59;4237065;28;5665;-65
2024/01/25 14:57:36;;;;;;;;;;;;;;;14.79;63.95;98066.75;4237109;28;5650;-65
2024/01/25 14:59:40;;;;;;;;;;;;;;;14.78;64.01;98065.91;4237115;28;5785;-65
2024/01/25 15:01:47;;;;;;;;;;;;;;;14.78;63.88;98060.59;4236967;28;7663;-65
2024/01/25 15:03:51;;;;;;;;;;;;;;;14.79;63.84;98053.44;4236685;28;5646;-67
2024/01/25 15:05:55;;;;;;;;;;;;;;;14.80;63.76;98055.09;4236794;28;5770;-65
2024/01/25 15:07:58;;;;;;;;;;;;;;;14.79;63.83;98056.91;4237016;28;5686;-65
2024/01/25 15:10:02;;;;;;;;;;;;;;;14.79;63.85;98050.78;4236957;28;5725;-66
2024/01/25 15:12:06;;;;;;;;;;;;;;;14.80;63.96;98047.09;4236530;28;5642;-66
2024/01/25 15:14:10;;;;;;;;;;;;;;;14.80;63.86;98049.75;4235480;28;6624;-65
2024/01/25 15:16:14;;;;;;;;;;;;;;;14.81;63.90;98054.06;4234909;28;5786;-65
2024/01/25 15:18:22;;;;;;;;;;;;;;;14.81;63.93;98051.41;4236409;28;5666;-64
2024/01/25 15:20:26;;;;;;;;;;;;;;;14.82;63.72;98050.38;4236377;28;5674;-65
2024/01/25 15:22:30;;;;;;;;;;;;;;;14.81;63.83;98046.09;4235678;28;5742;-65
2024/01/25 15:24:34;;;;;;;;;;;;;;;14.80;63.81;98045.25;4235849;28;5725;-65
2024/01/25 15:26:41;;;;;;;;;;;;;;;14.80;63.73;98031.94;4235324;28;5740;-65
2024/01/25 15:28:45;;;;;;;;;;;;;;;14.79;63.87;98032.97;4236219;28;5826;-65
2024/01/25 15:30:49;;;;;;;;;;;;;;;14.79;63.76;98040.13;4239087;27;5642;-65
2024/01/25 15:32:52;;;;;;;;;;;;;;;14.78;63.69;98041.97;4235712;28;5736;-64
2024/01/25 15:34:57;;;;;;;;;;;;;;;14.78;63.80;98041.13;4234867;28;5128;-64
2024/01/25 15:37:00;;;;;;;;;;;;;;;14.78;63.65;98041.13;4232105;28;7718;-64
2024/01/25 15:39:03;;;;;;;;;;;;;;;14.78;63.70;98039.31;4235709;28;5781;-65
2024/01/25 15:41:07;;;;;;;;;;;;;;;14.78;63.71;98041.13;4235606;27;5768;-64
2024/01/25 15:43:10;;;;;;;;;;;;;;;14.77;63.79;98034.16;4231698;28;5745;-64
2024/01/25 15:45:13;;;;;;;;;;;;;;;14.77;63.77;98035.00;4235482;28;5703;-64
2024/01/25 15:47:16;;;;;;;;;;;;;;;14.79;63.73;98032.13;4234998;28;5658;-64
2024/01/25 15:49:22;;;;;;;;;;;;;;;14.78;63.87;98025.16;4235150;28;5733;-65
2024/01/25 15:51:27;;;;;;;;;;;;;;;14.77;63.83;98021.69;4235285;28;5137;-64
2024/01/25 15:53:30;;;;;;;;;;;;;;;14.78;63.71;98022.50;4233089;28;7703;-65
2024/01/25 15:55:33;;;;;;;;;;;;;;;14.78;63.74;98018.00;4235338;28;7794;-65
2024/01/25 15:57:36;;;;;;;;;;;;;;;14.77;63.82;98020.88;4235468;28;5645;-64
2024/01/25 15:59:39;;;;;;;;;;;;;;;14.76;63.78;98009.38;4235349;28;5741;-64
2024/01/25 16:01:43;;;;;;;;;;;;;;;14.77;63.68;98019.03;4236276;28;5766;-65
2024/01/25 16:03:46;;;;;;;;;;;;;;;14.76;63.73;98016.56;4235490;27;5661;-64
2024/01/25 16:05:49;;;;;;;;;;;;;;;14.76;63.88;98020.03;4235663;28;5654;-65
2024/01/25 16:07:53;;;;;;;;;;;;;;;14.75;63.91;98012.25;4234956;28;5642;-65
2024/01/25 16:09:56;;;;;;;;;;;;;;;14.75;63.83;98021.06;4235659;28;5659;-65
2024/01/25 16:11:58;;;;;;;;;;;;;;;14.74;63.83;98013.25;4235570;28;5646;-65
2024/01/25 16:14:01;;;;;;;;;;;;;;;14.74;63.76;98013.25;4235674;28;5881;-64
2024/01/25 16:16:05;;;;;;;;;;;;;;;14.74;63.67;98013.25;4235780;28;5855;-64
2024/01/25 16:18:08;;;;;;;;;;;;;;;14.73;63.85;98022.25;4235459;28;5721;-64
2024/01/25 16:20:13;;;;;;;;;;;;;;;14.71;63.75;98022.44;4235695;28;5646;-65
2024/01/25 16:22:15;;;;;;;;;;;;;;;14.70;63.76;98025.28;4235359;28;6598;-65
2024/01/25 16:24:19;;;;;;;;;;;;;;;14.68;63.60;98024.66;4235812;28;5667;-65
2024/01/25 16:26:22;;;;;;;;;;;;;;;14.65;63.84;98036.50;4235681;27;5654;-66
2024/01/25 16:28:25;;;;;;;;;;;;;;;14.62;63.83;98034.22;4235410;28;6324;-64
2024/01/25 16:30:28;;;;;;;;;;;;;;;14.61;63.61;98037.06;4235710;28;5657;-64
2024/01/25 16:32:32;;;;;;;;;;;;;;;14.59;63.88;98033.75;4234506;27;5642;-65
2024/01/25 16:34:35;;;;;;;;;;;;;;;14.56;63.72;98038.47;4232674;27;5864;-65
2024/01/25 16:36:39;;;;;;;;;;;;;;;14.55;63.69;98036.81;4238229;27;5625;-66
2024/01/25 16:38:42;;;;;;;;;;;;;;;14.55;63.70;98036.81;4234672;28;5759;-65
2024/01/25 16:40:46;;;;;;;;;;;;;;;14.54;63.90;98035.16;4232203;28;5740;-65
2024/01/25 16:42:50;;;;;;;;;;;;;;;14.53;63.70;98038.84;4230184;27;6522;-65
2024/01/25 16:44:53;;;;;;;;;;;;;;;14.54;63.81;98037.00;4225307;28;5739;-64
2024/01/25 16:46:56;;;;;;;;;;;;;;;14.53;63.85;98038.84;4233298;27;6454;-65
2024/01/25 16:48:59;;;;;;;;;;;;;;;14.53;63.83;98038.84;4231969;28;5666;-65
2024/01/25 16:51:02;;;;;;;;;;;;;;;14.53;64.00;98041.50;4233262;28;5608;-65
2024/01/25 16:53:06;;;;;;;;;;;;;;;14.53;63.89;98044.16;4233746;28;5650;-65
2024/01/25 16:55:10;;;;;;;;;;;;;;;14.53;64.08;98048.66;4224258;27;5675;-65
2024/01/25 16:57:14;;;;;;;;;;;;;;;14.53;63.96;98049.47;4226919;27;5643;-65
2024/01/25 16:59:17;;;;;;;;;;;;;;;14.52;63.90;98047.84;4232441;28;5796;-65
2024/01/25 17:01:20;;;;;;;;;;;;;;;14.53;63.97;98051.31;4230096;27;5654;-65
2024/01/25 17:03:23;;;;;;;;;;;;;;;14.53;64.04;98052.16;4229514;27;5725;-64
2024/01/25 17:05:26;;;;;;;;;;;;;;;14.51;64.01;98054.16;4229963;27;5650;-64